sensor_id;sensor_type;location;lat;lon;timestamp;temperature;humidity
5938;DHT22;2994;51.220;4.412;2023-05-07T00:00:10;19.27;68.45
5938;DHT22;2994;51.220;4.412;2023-05-07T00:02:36;19.28;68.24
5938;DHT22;2994;51.220;4.412;2023-05-07T00:05:03;19.29;68.44
5938;DHT22;2994;51.220;4.412;2023-05-07T00:07:29;19.29;68.42
5938;DHT22;2994;51.220;4.412;2023-05-07T00:09:54;19.25;68.65
5938;DHT22;2994;51.220;4.412;2023-05-07T00:12:20;19.25;68.53
5938;DHT22;2994;51.220;4.412;2023-05-07T00:14:46;19.26;68.18
5938;DHT22;2994;51.220;4.412;2023-05-07T00:17:11;19.23;68.42
5938;DHT22;2994;51.220;4.412;2023-05-07T00:19:37;19.20;69.06
5938;DHT22;2994;51.220;4.412;2023-05-07T00:22:02;19.21;68.92
5938;DHT22;2994;51.220;4.412;2023-05-07T00:24:28;19.21;68.88
5938;DHT22;2994;51.220;4.412;2023-05-07T00:26:53;19.18;69.08
5938;DHT22;2994;51.220;4.412;2023-05-07T00:29:18;19.13;69.36
5938;DHT22;2994;51.220;4.412;2023-05-07T00:31:44;19.13;69.28
5938;DHT22;2994;51.220;4.412;2023-05-07T00:34:09;19.05;69.83
5938;DHT22;2994;51.220;4.412;2023-05-07T00:36:35;19.10;69.46
5938;DHT22;2994;51.220;4.412;2023-05-07T00:39:01;19.10;69.32
5938;DHT22;2994;51.220;4.412;2023-05-07T00:41:29;19.11;69.20
5938;DHT22;2994;51.220;4.412;2023-05-07T00:43:55;19.10;69.29
5938;DHT22;2994;51.220;4.412;2023-05-07T00:46:22;19.11;69.32
5938;DHT22;2994;51.220;4.412;2023-05-07T00:48:48;19.11;69.09
5938;DHT22;2994;51.220;4.412;2023-05-07T00:51:15;19.12;69.15
5938;DHT22;2994;51.220;4.412;2023-05-07T00:53:41;19.13;69.04
5938;DHT22;2994;51.220;4.412;2023-05-07T00:56:06;19.13;69.02
5938;DHT22;2994;51.220;4.412;2023-05-07T00:58:33;19.12;69.00
5938;DHT22;2994;51.220;4.412;2023-05-07T01:00:59;19.13;69.04
5938;DHT22;2994;51.220;4.412;2023-05-07T01:03:25;19.12;69.29
5938;DHT22;2994;51.220;4.412;2023-05-07T01:05:52;19.12;69.13
5938;DHT22;2994;51.220;4.412;2023-05-07T01:08:18;19.12;69.26
5938;DHT22;2994;51.220;4.412;2023-05-07T01:10:44;19.11;69.36
5938;DHT22;2994;51.220;4.412;2023-05-07T01:13:11;19.10;69.33
5938;DHT22;2994;51.220;4.412;2023-05-07T01:15:38;19.10;69.15
5938;DHT22;2994;51.220;4.412;2023-05-07T01:18:04;19.09;69.39
5938;DHT22;2994;51.220;4.412;2023-05-07T01:20:30;19.10;69.38
5938;DHT22;2994;51.220;4.412;2023-05-07T01:22:56;19.08;69.52
5938;DHT22;2994;51.220;4.412;2023-05-07T01:25:22;19.07;69.37
5938;DHT22;2994;51.220;4.412;2023-05-07T01:27:48;19.05;69.42
5938;DHT22;2994;51.220;4.412;2023-05-07T01:30:14;19.03;69.56
5938;DHT22;2994;51.220;4.412;2023-05-07T01:35:07;19.01;69.64
5938;DHT22;2994;51.220;4.412;2023-05-07T01:37:35;18.99;69.58
5938;DHT22;2994;51.220;4.412;2023-05-07T01:40:02;19.01;69.73
5938;DHT22;2994;51.220;4.412;2023-05-07T01:42:28;18.98;69.79
5938;DHT22;2994;51.220;4.412;2023-05-07T01:44:54;18.95;69.84
5938;DHT22;2994;51.220;4.412;2023-05-07T01:47:20;18.94;69.90
5938;DHT22;2994;51.220;4.412;2023-05-07T01:49:46;18.92;70.13
5938;DHT22;2994;51.220;4.412;2023-05-07T01:52:11;18.91;70.30
5938;DHT22;2994;51.220;4.412;2023-05-07T01:54:37;18.86;70.29
5938;DHT22;2994;51.220;4.412;2023-05-07T01:57:02;18.86;70.15
5938;DHT22;2994;51.220;4.412;2023-05-07T01:59:28;18.85;70.25
5938;DHT22;2994;51.220;4.412;2023-05-07T02:01:53;18.82;70.24
5938;DHT22;2994;51.220;4.412;2023-05-07T02:04:19;18.81;70.19
5938;DHT22;2994;51.220;4.412;2023-05-07T02:06:44;18.79;70.31
5938;DHT22;2994;51.220;4.412;2023-05-07T02:09:11;18.78;70.65
5938;DHT22;2994;51.220;4.412;2023-05-07T02:11:39;18.74;70.91
5938;DHT22;2994;51.220;4.412;2023-05-07T02:14:04;18.74;70.78
5938;DHT22;2994;51.220;4.412;2023-05-07T02:16:30;18.72;70.90
5938;DHT22;2994;51.220;4.412;2023-05-07T02:18:56;18.76;70.97
5938;DHT22;2994;51.220;4.412;2023-05-07T02:21:21;18.77;70.75
5938;DHT22;2994;51.220;4.412;2023-05-07T02:23:47;18.78;70.65
5938;DHT22;2994;51.220;4.412;2023-05-07T02:26:12;18.73;71.04
5938;DHT22;2994;51.220;4.412;2023-05-07T02:28:38;18.73;71.12
5938;DHT22;2994;51.220;4.412;2023-05-07T02:31:04;18.73;71.05
5938;DHT22;2994;51.220;4.412;2023-05-07T02:33:29;18.70;71.38
5938;DHT22;2994;51.220;4.412;2023-05-07T02:35:56;18.71;71.17
5938;DHT22;2994;51.220;4.412;2023-05-07T02:38:22;18.71;71.13
5938;DHT22;2994;51.220;4.412;2023-05-07T02:40:47;18.72;71.07
5938;DHT22;2994;51.220;4.412;2023-05-07T02:43:13;18.71;70.97
5938;DHT22;2994;51.220;4.412;2023-05-07T02:45:38;18.70;71.37
5938;DHT22;2994;51.220;4.412;2023-05-07T02:48:04;18.70;71.35
5938;DHT22;2994;51.220;4.412;2023-05-07T02:50:30;18.71;71.19
5938;DHT22;2994;51.220;4.412;2023-05-07T02:52:58;18.70;71.35
5938;DHT22;2994;51.220;4.412;2023-05-07T02:55:23;18.71;71.26
5938;DHT22;2994;51.220;4.412;2023-05-07T02:57:48;18.73;71.20
5938;DHT22;2994;51.220;4.412;2023-05-07T03:00:16;18.72;71.19
5938;DHT22;2994;51.220;4.412;2023-05-07T03:02:41;18.73;71.24
5938;DHT22;2994;51.220;4.412;2023-05-07T03:05:07;18.73;71.21
5938;DHT22;2994;51.220;4.412;2023-05-07T03:07:34;18.72;71.23
5938;DHT22;2994;51.220;4.412;2023-05-07T03:10:00;18.69;71.58
5938;DHT22;2994;51.220;4.412;2023-05-07T03:12:25;18.71;71.36
5938;DHT22;2994;51.220;4.412;2023-05-07T03:14:51;18.73;70.86
5938;DHT22;2994;51.220;4.412;2023-05-07T03:17:16;18.73;71.34
5938;DHT22;2994;51.220;4.412;2023-05-07T03:19:42;18.76;71.28
5938;DHT22;2994;51.220;4.412;2023-05-07T03:22:07;18.78;71.08
5938;DHT22;2994;51.220;4.412;2023-05-07T03:24:33;18.80;71.08
5938;DHT22;2994;51.220;4.412;2023-05-07T03:26:58;18.80;71.03
5938;DHT22;2994;51.220;4.412;2023-05-07T03:29:23;18.79;70.80
5938;DHT22;2994;51.220;4.412;2023-05-07T03:31:49;18.82;70.59
5938;DHT22;2994;51.220;4.412;2023-05-07T03:34:14;18.83;70.29
5938;DHT22;2994;51.220;4.412;2023-05-07T03:36:42;18.84;70.53
5938;DHT22;2994;51.220;4.412;2023-05-07T03:39:07;18.83;70.31
5938;DHT22;2994;51.220;4.412;2023-05-07T03:41:33;18.83;70.29
5938;DHT22;2994;51.220;4.412;2023-05-07T03:43:58;18.84;70.38
5938;DHT22;2994;51.220;4.412;2023-05-07T03:46:24;18.82;70.22
5938;DHT22;2994;51.220;4.412;2023-05-07T03:48:51;18.83;70.35
5938;DHT22;2994;51.220;4.412;2023-05-07T03:51:17;18.84;70.24
5938;DHT22;2994;51.220;4.412;2023-05-07T03:53:42;18.82;70.51
5938;DHT22;2994;51.220;4.412;2023-05-07T03:56:07;18.80;70.58
5938;DHT22;2994;51.220;4.412;2023-05-07T03:58:33;18.80;70.42
5938;DHT22;2994;51.220;4.412;2023-05-07T04:00:59;18.78;70.65
5938;DHT22;2994;51.220;4.412;2023-05-07T04:03:24;18.78;70.58
5938;DHT22;2994;51.220;4.412;2023-05-07T04:05:49;18.79;70.49
5938;DHT22;2994;51.220;4.412;2023-05-07T04:08:15;18.79;70.40
5938;DHT22;2994;51.220;4.412;2023-05-07T04:10:40;18.78;70.29
5938;DHT22;2994;51.220;4.412;2023-05-07T04:13:06;18.79;70.32
5938;DHT22;2994;51.220;4.412;2023-05-07T04:15:31;18.78;70.45
5938;DHT22;2994;51.220;4.412;2023-05-07T04:17:57;18.76;70.58
5938;DHT22;2994;51.220;4.412;2023-05-07T04:20:23;18.79;70.43
5938;DHT22;2994;51.220;4.412;2023-05-07T04:22:48;18.78;70.60
5938;DHT22;2994;51.220;4.412;2023-05-07T04:25:15;18.76;70.87
5938;DHT22;2994;51.220;4.412;2023-05-07T04:27:41;18.74;70.73
5938;DHT22;2994;51.220;4.412;2023-05-07T04:30:07;18.72;70.81
5938;DHT22;2994;51.220;4.412;2023-05-07T04:32:32;18.74;70.66
5938;DHT22;2994;51.220;4.412;2023-05-07T04:34:58;18.76;70.61
5938;DHT22;2994;51.220;4.412;2023-05-07T04:37:24;18.74;70.74
5938;DHT22;2994;51.220;4.412;2023-05-07T04:39:50;18.74;70.71
5938;DHT22;2994;51.220;4.412;2023-05-07T04:42:16;18.73;70.64
5938;DHT22;2994;51.220;4.412;2023-05-07T04:44:43;18.73;70.54
5938;DHT22;2994;51.220;4.412;2023-05-07T04:47:08;18.73;70.62
5938;DHT22;2994;51.220;4.412;2023-05-07T04:49:34;18.77;70.45
5938;DHT22;2994;51.220;4.412;2023-05-07T04:51:59;18.76;70.55
5938;DHT22;2994;51.220;4.412;2023-05-07T04:54:25;18.72;70.84
5938;DHT22;2994;51.220;4.412;2023-05-07T04:56:50;18.72;70.55
5938;DHT22;2994;51.220;4.412;2023-05-07T04:59:16;18.74;70.64
5938;DHT22;2994;51.220;4.412;2023-05-07T05:01:41;18.74;70.48
5938;DHT22;2994;51.220;4.412;2023-05-07T05:04:07;18.76;70.58
5938;DHT22;2994;51.220;4.412;2023-05-07T05:06:32;18.76;70.72
5938;DHT22;2994;51.220;4.412;2023-05-07T05:08:58;18.78;70.50
5938;DHT22;2994;51.220;4.412;2023-05-07T05:11:23;18.80;70.39
5938;DHT22;2994;51.220;4.412;2023-05-07T05:13:49;18.83;70.27
5938;DHT22;2994;51.220;4.412;2023-05-07T05:16:15;18.84;70.23
5938;DHT22;2994;51.220;4.412;2023-05-07T05:18:40;18.86;70.13
5938;DHT22;2994;51.220;4.412;2023-05-07T05:21:06;18.86;70.19
5938;DHT22;2994;51.220;4.412;2023-05-07T05:23:31;18.86;70.42
5938;DHT22;2994;51.220;4.412;2023-05-07T05:25:57;18.87;70.44
5938;DHT22;2994;51.220;4.412;2023-05-07T05:28:23;18.88;70.40
5938;DHT22;2994;51.220;4.412;2023-05-07T05:30:49;18.88;70.30
5938;DHT22;2994;51.220;4.412;2023-05-07T05:33:15;18.91;70.28
5938;DHT22;2994;51.220;4.412;2023-05-07T05:35:41;18.94;70.28
5938;DHT22;2994;51.220;4.412;2023-05-07T05:38:06;18.93;70.30
5938;DHT22;2994;51.220;4.412;2023-05-07T05:40:32;18.97;70.28
5938;DHT22;2994;51.220;4.412;2023-05-07T05:42:58;18.99;70.07
5938;DHT22;2994;51.220;4.412;2023-05-07T05:45:24;18.98;70.17
5938;DHT22;2994;51.220;4.412;2023-05-07T05:47:50;18.99;70.12
5938;DHT22;2994;51.220;4.412;2023-05-07T05:50:15;19.00;70.16
5938;DHT22;2994;51.220;4.412;2023-05-07T05:52:41;18.96;70.37
5938;DHT22;2994;51.220;4.412;2023-05-07T05:55:07;18.96;70.40
5938;DHT22;2994;51.220;4.412;2023-05-07T05:57:33;18.98;70.22
5938;DHT22;2994;51.220;4.412;2023-05-07T06:00:00;19.00;70.27
5938;DHT22;2994;51.220;4.412;2023-05-07T06:02:26;19.00;70.48
5938;DHT22;2994;51.220;4.412;2023-05-07T06:04:51;19.01;70.19
5938;DHT22;2994;51.220;4.412;2023-05-07T06:07:16;19.05;70.13
5938;DHT22;2994;51.220;4.412;2023-05-07T06:09:42;19.07;70.02
5938;DHT22;2994;51.220;4.412;2023-05-07T06:12:07;19.10;70.00
5938;DHT22;2994;51.220;4.412;2023-05-07T06:14:33;19.13;70.03
5938;DHT22;2994;51.220;4.412;2023-05-07T06:16:58;19.16;70.29
5938;DHT22;2994;51.220;4.412;2023-05-07T06:19:24;19.20;70.19
5938;DHT22;2994;51.220;4.412;2023-05-07T06:21:51;19.20;70.26
5938;DHT22;2994;51.220;4.412;2023-05-07T06:24:17;19.21;70.29
5938;DHT22;2994;51.220;4.412;2023-05-07T06:26:42;19.24;70.38
5938;DHT22;2994;51.220;4.412;2023-05-07T06:29:08;19.27;70.12
5938;DHT22;2994;51.220;4.412;2023-05-07T06:31:33;19.29;70.25
5938;DHT22;2994;51.220;4.412;2023-05-07T06:33:59;19.32;70.32
5938;DHT22;2994;51.220;4.412;2023-05-07T06:36:24;19.36;70.45
5938;DHT22;2994;51.220;4.412;2023-05-07T06:38:50;19.39;70.31
5938;DHT22;2994;51.220;4.412;2023-05-07T06:41:15;19.43;70.13
5938;DHT22;2994;51.220;4.412;2023-05-07T06:43:41;19.47;69.98
5938;DHT22;2994;51.220;4.412;2023-05-07T06:46:06;19.45;70.51
5938;DHT22;2994;51.220;4.412;2023-05-07T06:48:31;19.43;70.41
5938;DHT22;2994;51.220;4.412;2023-05-07T06:50:57;19.50;70.23
5938;DHT22;2994;51.220;4.412;2023-05-07T06:53:23;19.39;70.65
5938;DHT22;2994;51.220;4.412;2023-05-07T06:55:49;19.48;70.34
5938;DHT22;2994;51.220;4.412;2023-05-07T06:58:14;19.51;70.26
5938;DHT22;2994;51.220;4.412;2023-05-07T07:00:40;19.58;70.21
5938;DHT22;2994;51.220;4.412;2023-05-07T07:03:06;19.62;69.95
5938;DHT22;2994;51.220;4.412;2023-05-07T07:05:32;19.63;70.26
5938;DHT22;2994;51.220;4.412;2023-05-07T07:07:57;19.68;70.19
5938;DHT22;2994;51.220;4.412;2023-05-07T07:10:23;19.70;70.16
5938;DHT22;2994;51.220;4.412;2023-05-07T07:12:49;19.65;70.43
5938;DHT22;2994;51.220;4.412;2023-05-07T07:15:15;19.68;70.24
5938;DHT22;2994;51.220;4.412;2023-05-07T07:17:40;19.73;70.06
5938;DHT22;2994;51.220;4.412;2023-05-07T07:20:07;19.79;70.16
5938;DHT22;2994;51.220;4.412;2023-05-07T07:22:32;19.84;70.06
5938;DHT22;2994;51.220;4.412;2023-05-07T07:24:58;19.87;70.07
5938;DHT22;2994;51.220;4.412;2023-05-07T07:27:23;19.80;70.07
5938;DHT22;2994;51.220;4.412;2023-05-07T07:29:49;19.81;70.02
5938;DHT22;2994;51.220;4.412;2023-05-07T07:32:14;19.89;69.52
5938;DHT22;2994;51.220;4.412;2023-05-07T07:34:40;19.91;69.38
5938;DHT22;2994;51.220;4.412;2023-05-07T07:37:05;19.97;69.27
5938;DHT22;2994;51.220;4.412;2023-05-07T07:39:35;20.01;68.51
5938;DHT22;2994;51.220;4.412;2023-05-07T07:42:02;19.82;68.10
5938;DHT22;2994;51.220;4.412;2023-05-07T07:44:36;19.88;68.22
5938;DHT22;2994;51.220;4.412;2023-05-07T07:47:01;19.85;67.47
5938;DHT22;2994;51.220;4.412;2023-05-07T07:49:27;19.84;67.70
5938;DHT22;2994;51.220;4.412;2023-05-07T07:51:52;19.69;68.58
5938;DHT22;2994;51.220;4.412;2023-05-07T07:54:18;19.67;68.52
5938;DHT22;2994;51.220;4.412;2023-05-07T07:56:43;19.66;68.57
5938;DHT22;2994;51.220;4.412;2023-05-07T07:59:09;19.60;68.91
5938;DHT22;2994;51.220;4.412;2023-05-07T08:01:34;19.61;68.92
5938;DHT22;2994;51.220;4.412;2023-05-07T08:04:00;19.58;69.18
5938;DHT22;2994;51.220;4.412;2023-05-07T08:06:28;19.54;69.77
5938;DHT22;2994;51.220;4.412;2023-05-07T08:08:53;19.51;70.06
5938;DHT22;2994;51.220;4.412;2023-05-07T08:11:19;19.55;69.88
5938;DHT22;2994;51.220;4.412;2023-05-07T08:13:45;19.69;69.41
5938;DHT22;2994;51.220;4.412;2023-05-07T08:16:11;19.79;69.63
5938;DHT22;2994;51.220;4.412;2023-05-07T08:18:36;19.81;69.16
5938;DHT22;2994;51.220;4.412;2023-05-07T08:21:02;19.84;69.16
5938;DHT22;2994;51.220;4.412;2023-05-07T08:23:27;19.83;69.37
5938;DHT22;2994;51.220;4.412;2023-05-07T08:25:53;19.74;69.81
5938;DHT22;2994;51.220;4.412;2023-05-07T08:28:18;19.83;69.32
5938;DHT22;2994;51.220;4.412;2023-05-07T08:30:45;19.79;69.67
5938;DHT22;2994;51.220;4.412;2023-05-07T08:33:11;19.96;69.05
5938;DHT22;2994;51.220;4.412;2023-05-07T08:35:36;20.09;69.03
5938;DHT22;2994;51.220;4.412;2023-05-07T08:38:01;19.95;69.38
5938;DHT22;2994;51.220;4.412;2023-05-07T08:40:27;20.04;68.94
5938;DHT22;2994;51.220;4.412;2023-05-07T08:42:54;20.15;68.48
5938;DHT22;2994;51.220;4.412;2023-05-07T08:45:20;20.22;68.42
5938;DHT22;2994;51.220;4.412;2023-05-07T08:47:47;20.28;68.37
5938;DHT22;2994;51.220;4.412;2023-05-07T08:50:16;20.26;68.19
5938;DHT22;2994;51.220;4.412;2023-05-07T08:52:42;20.07;68.78
5938;DHT22;2994;51.220;4.412;2023-05-07T08:55:08;20.20;68.16
5938;DHT22;2994;51.220;4.412;2023-05-07T08:57:34;20.21;68.41
5938;DHT22;2994;51.220;4.412;2023-05-07T09:00:00;20.28;67.99
5938;DHT22;2994;51.220;4.412;2023-05-07T09:02:25;20.27;68.30
5938;DHT22;2994;51.220;4.412;2023-05-07T09:04:51;20.19;68.23
5938;DHT22;2994;51.220;4.412;2023-05-07T09:07:19;20.21;68.72
5938;DHT22;2994;51.220;4.412;2023-05-07T09:09:44;20.15;68.36
5938;DHT22;2994;51.220;4.412;2023-05-07T09:12:10;20.27;67.89
5938;DHT22;2994;51.220;4.412;2023-05-07T09:14:36;20.35;67.74
5938;DHT22;2994;51.220;4.412;2023-05-07T09:17:01;20.30;68.10
5938;DHT22;2994;51.220;4.412;2023-05-07T09:19:27;20.36;67.82
5938;DHT22;2994;51.220;4.412;2023-05-07T09:22:03;20.31;68.10
5938;DHT22;2994;51.220;4.412;2023-05-07T09:24:29;20.35;67.75
5938;DHT22;2994;51.220;4.412;2023-05-07T09:26:59;20.42;67.24
5938;DHT22;2994;51.220;4.412;2023-05-07T09:29:32;20.34;67.47
5938;DHT22;2994;51.220;4.412;2023-05-07T09:32:07;20.39;67.25
5938;DHT22;2994;51.220;4.412;2023-05-07T09:34:34;20.49;67.04
5938;DHT22;2994;51.220;4.412;2023-05-07T09:37:04;20.43;67.66
5938;DHT22;2994;51.220;4.412;2023-05-07T09:39:47;20.46;67.20
5938;DHT22;2994;51.220;4.412;2023-05-07T09:42:13;20.45;67.64
5938;DHT22;2994;51.220;4.412;2023-05-07T09:44:40;20.46;67.87
5938;DHT22;2994;51.220;4.412;2023-05-07T09:47:06;20.48;67.81
5938;DHT22;2994;51.220;4.412;2023-05-07T09:49:37;20.45;68.41
5938;DHT22;2994;51.220;4.412;2023-05-07T09:52:05;20.40;69.24
5938;DHT22;2994;51.220;4.412;2023-05-07T09:54:35;20.42;68.82
5938;DHT22;2994;51.220;4.412;2023-05-07T09:57:03;20.47;68.87
5938;DHT22;2994;51.220;4.412;2023-05-07T09:59:33;20.45;69.14
5938;DHT22;2994;51.220;4.412;2023-05-07T10:02:01;20.42;69.59
5938;DHT22;2994;51.220;4.412;2023-05-07T10:04:26;20.37;69.36
5938;DHT22;2994;51.220;4.412;2023-05-07T10:06:52;20.42;69.11
5938;DHT22;2994;51.220;4.412;2023-05-07T10:09:19;20.42;69.52
5938;DHT22;2994;51.220;4.412;2023-05-07T10:11:45;20.22;69.73
5938;DHT22;2994;51.220;4.412;2023-05-07T10:14:13;20.21;69.71
5938;DHT22;2994;51.220;4.412;2023-05-07T10:16:39;20.22;69.60
5938;DHT22;2994;51.220;4.412;2023-05-07T10:19:07;20.32;69.56
5938;DHT22;2994;51.220;4.412;2023-05-07T10:21:36;20.18;70.48
5938;DHT22;2994;51.220;4.412;2023-05-07T10:24:09;20.00;71.29
5938;DHT22;2994;51.220;4.412;2023-05-07T10:26:43;19.94;71.80
5938;DHT22;2994;51.220;4.412;2023-05-07T10:29:18;19.96;71.40
5938;DHT22;2994;51.220;4.412;2023-05-07T10:34:48;19.85;71.90
5938;DHT22;2994;51.220;4.412;2023-05-07T10:37:16;19.80;72.54
5938;DHT22;2994;51.220;4.412;2023-05-07T10:39:42;19.97;71.87
5938;DHT22;2994;51.220;4.412;2023-05-07T10:42:09;20.01;72.57
5938;DHT22;2994;51.220;4.412;2023-05-07T10:44:35;20.05;72.39
5938;DHT22;2994;51.220;4.412;2023-05-07T10:52:24;19.67;74.44
5938;DHT22;2994;51.220;4.412;2023-05-07T10:57:42;20.01;73.04
5938;DHT22;2994;51.220;4.412;2023-05-07T11:03:06;19.98;73.14
5938;DHT22;2994;51.220;4.412;2023-05-07T11:05:33;20.01;73.33
5938;DHT22;2994;51.220;4.412;2023-05-07T11:08:00;20.01;73.89
5938;DHT22;2994;51.220;4.412;2023-05-07T11:10:51;19.74;74.12
5938;DHT22;2994;51.220;4.412;2023-05-07T11:13:17;19.68;74.22
5938;DHT22;2994;51.220;4.412;2023-05-07T11:15:45;19.84;73.76
5938;DHT22;2994;51.220;4.412;2023-05-07T11:18:12;19.74;74.15
5938;DHT22;2994;51.220;4.412;2023-05-07T11:26:03;19.62;74.28
5938;DHT22;2994;51.220;4.412;2023-05-07T11:28:37;19.63;74.35
5938;DHT22;2994;51.220;4.412;2023-05-07T11:31:03;19.85;73.79
5938;DHT22;2994;51.220;4.412;2023-05-07T11:33:30;19.90;73.86
5938;DHT22;2994;51.220;4.412;2023-05-07T11:35:56;19.94;73.51
5938;DHT22;2994;51.220;4.412;2023-05-07T11:38:22;19.98;73.48
5938;DHT22;2994;51.220;4.412;2023-05-07T11:40:52;20.01;73.60
5938;DHT22;2994;51.220;4.412;2023-05-07T11:43:18;20.07;73.22
5938;DHT22;2994;51.220;4.412;2023-05-07T11:45:47;20.05;74.03
5938;DHT22;2994;51.220;4.412;2023-05-07T11:48:14;20.10;73.74
5938;DHT22;2994;51.220;4.412;2023-05-07T11:53:28;20.20;73.86
5938;DHT22;2994;51.220;4.412;2023-05-07T11:55:59;20.24;73.40
5938;DHT22;2994;51.220;4.412;2023-05-07T11:58:25;20.20;73.16
5938;DHT22;2994;51.220;4.412;2023-05-07T12:00:54;20.19;72.75
5938;DHT22;2994;51.220;4.412;2023-05-07T12:03:20;20.18;72.59
5938;DHT22;2994;51.220;4.412;2023-05-07T12:05:47;20.24;72.77
5938;DHT22;2994;51.220;4.412;2023-05-07T12:08:19;20.26;72.50
5938;DHT22;2994;51.220;4.412;2023-05-07T12:10:47;20.26;72.05
5938;DHT22;2994;51.220;4.412;2023-05-07T12:13:18;20.04;73.32
5938;DHT22;2994;51.220;4.412;2023-05-07T12:15:44;20.03;72.80
5938;DHT22;2994;51.220;4.412;2023-05-07T12:18:11;20.14;72.87
5938;DHT22;2994;51.220;4.412;2023-05-07T12:20:36;20.13;73.12
5938;DHT22;2994;51.220;4.412;2023-05-07T12:23:02;20.03;73.93
5938;DHT22;2994;51.220;4.412;2023-05-07T12:25:35;20.01;72.93
5938;DHT22;2994;51.220;4.412;2023-05-07T12:28:02;20.10;72.92
5938;DHT22;2994;51.220;4.412;2023-05-07T12:30:28;20.21;72.87
5938;DHT22;2994;51.220;4.412;2023-05-07T12:32:54;20.22;72.72
5938;DHT22;2994;51.220;4.412;2023-05-07T12:35:30;20.21;72.94
5938;DHT22;2994;51.220;4.412;2023-05-07T12:37:59;20.32;72.32
5938;DHT22;2994;51.220;4.412;2023-05-07T12:40:43;20.12;73.35
5938;DHT22;2994;51.220;4.412;2023-05-07T12:43:21;20.14;73.35
5938;DHT22;2994;51.220;4.412;2023-05-07T12:45:50;20.18;73.12
5938;DHT22;2994;51.220;4.412;2023-05-07T12:48:16;20.29;72.64
5938;DHT22;2994;51.220;4.412;2023-05-07T12:50:42;20.35;72.11
5938;DHT22;2994;51.220;4.412;2023-05-07T12:53:10;20.46;71.75
5938;DHT22;2994;51.220;4.412;2023-05-07T12:55:45;20.50;72.22
5938;DHT22;2994;51.220;4.412;2023-05-07T12:58:20;20.54;71.02
5938;DHT22;2994;51.220;4.412;2023-05-07T13:00:48;20.54;70.55
5938;DHT22;2994;51.220;4.412;2023-05-07T13:03:28;20.61;69.85
5938;DHT22;2994;51.220;4.412;2023-05-07T13:06:05;20.69;70.71
5938;DHT22;2994;51.220;4.412;2023-05-07T13:08:49;20.77;70.85
5938;DHT22;2994;51.220;4.412;2023-05-07T13:11:14;20.87;70.33
5938;DHT22;2994;51.220;4.412;2023-05-07T13:13:41;20.96;70.07
5938;DHT22;2994;51.220;4.412;2023-05-07T13:16:08;20.96;68.88
5938;DHT22;2994;51.220;4.412;2023-05-07T13:18:34;20.92;68.49
5938;DHT22;2994;51.220;4.412;2023-05-07T13:21:00;21.00;69.22
5938;DHT22;2994;51.220;4.412;2023-05-07T13:23:27;21.10;69.36
5938;DHT22;2994;51.220;4.412;2023-05-07T13:25:52;21.20;69.58
5938;DHT22;2994;51.220;4.412;2023-05-07T13:28:19;21.19;68.55
5938;DHT22;2994;51.220;4.412;2023-05-07T13:30:45;21.22;68.78
5938;DHT22;2994;51.220;4.412;2023-05-07T13:33:11;21.18;69.20
5938;DHT22;2994;51.220;4.412;2023-05-07T13:35:36;21.29;69.65
5938;DHT22;2994;51.220;4.412;2023-05-07T13:38:02;21.34;68.90
5938;DHT22;2994;51.220;4.412;2023-05-07T13:40:28;21.40;68.42
5938;DHT22;2994;51.220;4.412;2023-05-07T13:42:56;21.30;68.07
5938;DHT22;2994;51.220;4.412;2023-05-07T13:45:21;21.37;67.79
5938;DHT22;2994;51.220;4.412;2023-05-07T13:47:50;21.45;68.21
5938;DHT22;2994;51.220;4.412;2023-05-07T13:50:16;21.51;68.65
5938;DHT22;2994;51.220;4.412;2023-05-07T13:52:43;21.49;65.82
5938;DHT22;2994;51.220;4.412;2023-05-07T13:55:11;21.60;65.41
5938;DHT22;2994;51.220;4.412;2023-05-07T13:57:38;21.67;65.89
5938;DHT22;2994;51.220;4.412;2023-05-07T14:00:04;21.75;65.32
5938;DHT22;2994;51.220;4.412;2023-05-07T14:02:30;21.77;65.05
5938;DHT22;2994;51.220;4.412;2023-05-07T14:04:56;21.83;66.59
5938;DHT22;2994;51.220;4.412;2023-05-07T14:07:21;21.88;66.40
5938;DHT22;2994;51.220;4.412;2023-05-07T14:09:47;21.90;66.62
5938;DHT22;2994;51.220;4.412;2023-05-07T14:12:12;21.90;65.27
5938;DHT22;2994;51.220;4.412;2023-05-07T14:14:38;21.88;66.75
5938;DHT22;2994;51.220;4.412;2023-05-07T14:17:03;21.89;66.06
5938;DHT22;2994;51.220;4.412;2023-05-07T14:19:29;21.93;65.65
5938;DHT22;2994;51.220;4.412;2023-05-07T14:21:54;21.88;65.41
5938;DHT22;2994;51.220;4.412;2023-05-07T14:24:20;21.85;65.14
5938;DHT22;2994;51.220;4.412;2023-05-07T14:26:45;21.84;63.68
5938;DHT22;2994;51.220;4.412;2023-05-07T14:29:11;21.84;64.43
5938;DHT22;2994;51.220;4.412;2023-05-07T14:31:36;21.85;65.22
5938;DHT22;2994;51.220;4.412;2023-05-07T14:34:02;21.92;65.01
5938;DHT22;2994;51.220;4.412;2023-05-07T14:36:27;22.02;65.14
5938;DHT22;2994;51.220;4.412;2023-05-07T14:38:53;22.05;65.24
5938;DHT22;2994;51.220;4.412;2023-05-07T14:41:24;22.07;63.83
5938;DHT22;2994;51.220;4.412;2023-05-07T14:43:49;22.07;64.33
5938;DHT22;2994;51.220;4.412;2023-05-07T14:46:18;22.05;64.20
5938;DHT22;2994;51.220;4.412;2023-05-07T14:48:45;22.08;64.31
5938;DHT22;2994;51.220;4.412;2023-05-07T14:51:11;22.08;64.07
5938;DHT22;2994;51.220;4.412;2023-05-07T14:53:37;22.06;64.35
5938;DHT22;2994;51.220;4.412;2023-05-07T14:56:02;21.88;63.97
5938;DHT22;2994;51.220;4.412;2023-05-07T14:58:28;21.96;64.15
5938;DHT22;2994;51.220;4.412;2023-05-07T15:00:54;22.06;63.83
5938;DHT22;2994;51.220;4.412;2023-05-07T15:03:19;22.13;63.64
5938;DHT22;2994;51.220;4.412;2023-05-07T15:05:45;22.62;62.85
5938;DHT22;2994;51.220;4.412;2023-05-07T15:08:11;22.84;61.60
5938;DHT22;2994;51.220;4.412;2023-05-07T15:10:37;22.82;61.57
5938;DHT22;2994;51.220;4.412;2023-05-07T15:13:10;23.00;62.12
5938;DHT22;2994;51.220;4.412;2023-05-07T15:15:36;22.92;60.54
5938;DHT22;2994;51.220;4.412;2023-05-07T15:18:02;23.07;61.23
5938;DHT22;2994;51.220;4.412;2023-05-07T15:20:28;23.24;60.04
5938;DHT22;2994;51.220;4.412;2023-05-07T15:22:53;23.46;59.22
5938;DHT22;2994;51.220;4.412;2023-05-07T15:25:19;23.64;59.35
5938;DHT22;2994;51.220;4.412;2023-05-07T15:27:44;23.60;59.38
5938;DHT22;2994;51.220;4.412;2023-05-07T15:30:11;23.45;60.06
5938;DHT22;2994;51.220;4.412;2023-05-07T15:32:37;23.41;59.91
5938;DHT22;2994;51.220;4.412;2023-05-07T15:35:04;23.03;58.96
5938;DHT22;2994;51.220;4.412;2023-05-07T15:37:33;22.86;59.57
5938;DHT22;2994;51.220;4.412;2023-05-07T15:39:59;22.86;60.51
5938;DHT22;2994;51.220;4.412;2023-05-07T15:42:24;23.12;60.15
5938;DHT22;2994;51.220;4.412;2023-05-07T15:44:50;23.31;58.77
5938;DHT22;2994;51.220;4.412;2023-05-07T15:47:15;23.20;58.50
5938;DHT22;2994;51.220;4.412;2023-05-07T15:49:41;23.27;58.28
5938;DHT22;2994;51.220;4.412;2023-05-07T15:52:07;23.29;59.25
5938;DHT22;2994;51.220;4.412;2023-05-07T15:54:36;23.40;59.75
5938;DHT22;2994;51.220;4.412;2023-05-07T15:57:03;23.36;58.35
5938;DHT22;2994;51.220;4.412;2023-05-07T15:59:28;23.46;57.38
5938;DHT22;2994;51.220;4.412;2023-05-07T16:01:54;23.56;57.13
5938;DHT22;2994;51.220;4.412;2023-05-07T16:04:20;23.67;56.89
5938;DHT22;2994;51.220;4.412;2023-05-07T16:06:46;24.31;55.04
5938;DHT22;2994;51.220;4.412;2023-05-07T16:09:12;25.02;53.84
5938;DHT22;2994;51.220;4.412;2023-05-07T16:11:38;25.13;54.01
5938;DHT22;2994;51.220;4.412;2023-05-07T16:14:03;25.06;53.46
5938;DHT22;2994;51.220;4.412;2023-05-07T16:16:32;24.91;53.56
5938;DHT22;2994;51.220;4.412;2023-05-07T16:18:58;24.70;55.45
5938;DHT22;2994;51.220;4.412;2023-05-07T16:21:23;24.33;55.16